sensor_id;sensor_type;location;lat;lon;timestamp;P1;durP1;ratioP1;P2;durP2;ratioP2
72611;SDS011;60655;52.182;4.474;2022-11-15T00:00:29;48.90;;;16.73;;
72611;SDS011;60655;52.182;4.474;2022-11-15T00:02:30;52.03;;;18.15;;
72611;SDS011;60655;52.182;4.474;2022-11-15T00:04:31;51.70;;;19.13;;
72611;SDS011;60655;52.182;4.474;2022-11-15T00:06:32;51.80;;;17.75;;
72611;SDS011;60655;52.182;4.474;2022-11-15T00:10:34;47.25;;;16.27;;
72611;SDS011;60655;52.182;4.474;2022-11-15T00:12:36;47.33;;;17.08;;
72611;SDS011;60655;52.182;4.474;2022-11-15T00:14:37;49.22;;;18.88;;
72611;SDS011;60655;52.182;4.474;2022-11-15T00:16:38;45.53;;;17.25;;
72611;SDS011;60655;52.182;4.474;2022-11-15T00:18:39;52.08;;;18.65;;
72611;SDS011;60655;52.182;4.474;2022-11-15T00:22:40;51.13;;;18.10;;
72611;SDS011;60655;52.182;4.474;2022-11-15T00:24:41;55.45;;;18.35;;
72611;SDS011;60655;52.182;4.474;2022-11-15T00:26:43;45.17;;;16.90;;
72611;SDS011;60655;52.182;4.474;2022-11-15T00:30:44;57.90;;;18.00;;
72611;SDS011;60655;52.182;4.474;2022-11-15T00:34:46;45.75;;;15.75;;
72611;SDS011;60655;52.182;4.474;2022-11-15T00:38:48;57.17;;;17.60;;
72611;SDS011;60655;52.182;4.474;2022-11-15T00:40:49;52.72;;;18.73;;
72611;SDS011;60655;52.182;4.474;2022-11-15T00:44:50;47.22;;;16.60;;
72611;SDS011;60655;52.182;4.474;2022-11-15T00:46:51;52.53;;;18.73;;
72611;SDS011;60655;52.182;4.474;2022-11-15T00:48:52;61.92;;;19.20;;
72611;SDS011;60655;52.182;4.474;2022-11-15T00:52:54;55.05;;;18.92;;
72611;SDS011;60655;52.182;4.474;2022-11-15T00:56:56;55.13;;;16.70;;
72611;SDS011;60655;52.182;4.474;2022-11-15T00:58:56;55.00;;;17.85;;
72611;SDS011;60655;52.182;4.474;2022-11-15T01:03:06;48.67;;;16.40;;
72611;SDS011;60655;52.182;4.474;2022-11-15T01:07:09;59.97;;;19.65;;
72611;SDS011;60655;52.182;4.474;2022-11-15T01:11:11;50.88;;;16.77;;
72611;SDS011;60655;52.182;4.474;2022-11-15T01:13:12;61.30;;;19.20;;
72611;SDS011;60655;52.182;4.474;2022-11-15T01:17:16;65.63;;;19.00;;
72611;SDS011;60655;52.182;4.474;2022-11-15T01:21:18;52.42;;;17.02;;
72611;SDS011;60655;52.182;4.474;2022-11-15T01:23:20;56.33;;;18.05;;
72611;SDS011;60655;52.182;4.474;2022-11-15T01:25:21;54.22;;;18.42;;
72611;SDS011;60655;52.182;4.474;2022-11-15T01:27:22;69.30;;;21.02;;
72611;SDS011;60655;52.182;4.474;2022-11-15T01:29:23;56.80;;;18.77;;
72611;SDS011;60655;52.182;4.474;2022-11-15T01:31:24;63.95;;;20.58;;
72611;SDS011;60655;52.182;4.474;2022-11-15T01:33:25;55.63;;;18.73;;
72611;SDS011;60655;52.182;4.474;2022-11-15T01:35:26;57.13;;;18.73;;
72611;SDS011;60655;52.182;4.474;2022-11-15T01:37:27;70.80;;;20.15;;
72611;SDS011;60655;52.182;4.474;2022-11-15T01:41:30;55.58;;;16.80;;
72611;SDS011;60655;52.182;4.474;2022-11-15T01:43:34;55.45;;;18.40;;
72611;SDS011;60655;52.182;4.474;2022-11-15T01:45:36;61.22;;;19.05;;
72611;SDS011;60655;52.182;4.474;2022-11-15T01:47:38;60.60;;;20.08;;
72611;SDS011;60655;52.182;4.474;2022-11-15T01:49:48;57.38;;;18.73;;
72611;SDS011;60655;52.182;4.474;2022-11-15T01:51:59;59.60;;;19.30;;
72611;SDS011;60655;52.182;4.474;2022-11-15T01:54:04;60.08;;;19.23;;
72611;SDS011;60655;52.182;4.474;2022-11-15T01:56:10;66.22;;;20.75;;
72611;SDS011;60655;52.182;4.474;2022-11-15T01:58:15;63.38;;;20.67;;
72611;SDS011;60655;52.182;4.474;2022-11-15T02:00:16;68.57;;;20.27;;
72611;SDS011;60655;52.182;4.474;2022-11-15T02:02:17;69.47;;;21.20;;
72611;SDS011;60655;52.182;4.474;2022-11-15T02:04:24;61.65;;;20.10;;
72611;SDS011;60655;52.182;4.474;2022-11-15T02:06:28;65.07;;;21.38;;
72611;SDS011;60655;52.182;4.474;2022-11-15T02:08:29;60.90;;;18.33;;
72611;SDS011;60655;52.182;4.474;2022-11-15T02:10:30;67.05;;;20.50;;
72611;SDS011;60655;52.182;4.474;2022-11-15T02:12:31;68.90;;;22.05;;
72611;SDS011;60655;52.182;4.474;2022-11-15T02:14:32;69.07;;;20.40;;
72611;SDS011;60655;52.182;4.474;2022-11-15T02:21:21;65.20;;;20.40;;
72611;SDS011;60655;52.182;4.474;2022-11-15T02:30:24;72.55;;;22.60;;
72611;SDS011;60655;52.182;4.474;2022-11-15T02:32:58;59.00;;;20.00;;
72611;SDS011;60655;52.182;4.474;2022-11-15T02:35:13;67.32;;;21.25;;
72611;SDS011;60655;52.182;4.474;2022-11-15T02:37:42;74.90;;;21.65;;
72611;SDS011;60655;52.182;4.474;2022-11-15T02:42:11;58.97;;;20.17;;
72611;SDS011;60655;52.182;4.474;2022-11-15T02:44:52;84.85;;;21.85;;
72611;SDS011;60655;52.182;4.474;2022-11-15T02:47:00;69.55;;;21.13;;
72611;SDS011;60655;52.182;4.474;2022-11-15T02:49:13;71.55;;;20.50;;
72611;SDS011;60655;52.182;4.474;2022-11-15T02:51:15;72.13;;;21.10;;
72611;SDS011;60655;52.182;4.474;2022-11-15T02:53:17;79.55;;;21.02;;
72611;SDS011;60655;52.182;4.474;2022-11-15T02:55:52;80.30;;;23.65;;
72611;SDS011;60655;52.182;4.474;2022-11-15T03:00:32;59.65;;;19.10;;
72611;SDS011;60655;52.182;4.474;2022-11-15T03:09:27;76.10;;;21.30;;
72611;SDS011;60655;52.182;4.474;2022-11-15T03:11:34;73.93;;;20.92;;
72611;SDS011;60655;52.182;4.474;2022-11-15T03:18:19;73.70;;;21.15;;
72611;SDS011;60655;52.182;4.474;2022-11-15T03:20:27;77.55;;;22.88;;
72611;SDS011;60655;52.182;4.474;2022-11-15T03:22:32;66.30;;;19.55;;
72611;SDS011;60655;52.182;4.474;2022-11-15T03:26:38;65.95;;;19.63;;
72611;SDS011;60655;52.182;4.474;2022-11-15T03:28:44;78.90;;;21.85;;
72611;SDS011;60655;52.182;4.474;2022-11-15T03:30:56;74.47;;;22.25;;
72611;SDS011;60655;52.182;4.474;2022-11-15T03:32:58;69.47;;;21.48;;
72611;SDS011;60655;52.182;4.474;2022-11-15T03:35:06;67.88;;;20.27;;
72611;SDS011;60655;52.182;4.474;2022-11-15T03:37:11;77.43;;;22.90;;
72611;SDS011;60655;52.182;4.474;2022-11-15T03:39:15;57.30;;;19.42;;
72611;SDS011;60655;52.182;4.474;2022-11-15T03:41:18;66.55;;;21.80;;
72611;SDS011;60655;52.182;4.474;2022-11-15T03:45:33;72.78;;;22.05;;
72611;SDS011;60655;52.182;4.474;2022-11-15T03:47:58;65.30;;;19.75;;
72611;SDS011;60655;52.182;4.474;2022-11-15T03:50:10;71.45;;;20.48;;
72611;SDS011;60655;52.182;4.474;2022-11-15T03:52:22;69.30;;;20.85;;
72611;SDS011;60655;52.182;4.474;2022-11-15T03:54:24;68.63;;;22.00;;
72611;SDS011;60655;52.182;4.474;2022-11-15T03:56:25;70.95;;;21.55;;
72611;SDS011;60655;52.182;4.474;2022-11-15T03:58:26;63.80;;;20.60;;
72611;SDS011;60655;52.182;4.474;2022-11-15T04:00:27;62.05;;;21.05;;
72611;SDS011;60655;52.182;4.474;2022-11-15T04:02:29;56.90;;;19.23;;
72611;SDS011;60655;52.182;4.474;2022-11-15T04:04:30;63.20;;;22.45;;
72611;SDS011;60655;52.182;4.474;2022-11-15T04:06:31;64.65;;;19.67;;
72611;SDS011;60655;52.182;4.474;2022-11-15T04:08:32;64.10;;;21.10;;
72611;SDS011;60655;52.182;4.474;2022-11-15T04:10:33;54.63;;;19.63;;
72611;SDS011;60655;52.182;4.474;2022-11-15T04:12:35;50.92;;;20.08;;
72611;SDS011;60655;52.182;4.474;2022-11-15T04:14:37;55.28;;;19.33;;
72611;SDS011;60655;52.182;4.474;2022-11-15T04:16:58;54.30;;;19.90;;
72611;SDS011;60655;52.182;4.474;2022-11-15T04:18:59;66.45;;;22.58;;
72611;SDS011;60655;52.182;4.474;2022-11-15T04:21:18;46.47;;;18.23;;
72611;SDS011;60655;52.182;4.474;2022-11-15T04:23:38;54.88;;;20.23;;
72611;SDS011;60655;52.182;4.474;2022-11-15T04:25:59;58.70;;;18.00;;
72611;SDS011;60655;52.182;4.474;2022-11-15T04:28:02;53.15;;;19.73;;
72611;SDS011;60655;52.182;4.474;2022-11-15T04:30:03;47.47;;;17.90;;
72611;SDS011;60655;52.182;4.474;2022-11-15T04:32:05;55.75;;;20.70;;
72611;SDS011;60655;52.182;4.474;2022-11-15T04:34:07;51.22;;;18.60;;
72611;SDS011;60655;52.182;4.474;2022-11-15T04:36:08;48.35;;;17.20;;
72611;SDS011;60655;52.182;4.474;2022-11-15T04:38:28;49.08;;;17.77;;
72611;SDS011;60655;52.182;4.474;2022-11-15T04:40:29;46.92;;;17.25;;
72611;SDS011;60655;52.182;4.474;2022-11-15T04:42:30;46.22;;;17.77;;
72611;SDS011;60655;52.182;4.474;2022-11-15T04:44:31;46.50;;;16.77;;
72611;SDS011;60655;52.182;4.474;2022-11-15T04:46:32;48.97;;;17.50;;
72611;SDS011;60655;52.182;4.474;2022-11-15T04:48:32;43.78;;;18.25;;
72611;SDS011;60655;52.182;4.474;2022-11-15T04:50:33;43.47;;;16.60;;
72611;SDS011;60655;52.182;4.474;2022-11-15T04:52:34;50.10;;;20.02;;
72611;SDS011;60655;52.182;4.474;2022-11-15T04:54:35;39.80;;;14.55;;
72611;SDS011;60655;52.182;4.474;2022-11-15T04:56:36;41.13;;;16.13;;
72611;SDS011;60655;52.182;4.474;2022-11-15T04:58:37;42.97;;;15.57;;
72611;SDS011;60655;52.182;4.474;2022-11-15T05:00:38;44.13;;;15.60;;
72611;SDS011;60655;52.182;4.474;2022-11-15T05:02:40;38.75;;;14.50;;
72611;SDS011;60655;52.182;4.474;2022-11-15T05:05:00;33.67;;;13.02;;
72611;SDS011;60655;52.182;4.474;2022-11-15T05:07:01;33.17;;;11.95;;
72611;SDS011;60655;52.182;4.474;2022-11-15T05:09:02;30.27;;;13.27;;
72611;SDS011;60655;52.182;4.474;2022-11-15T05:11:03;28.80;;;11.82;;
72611;SDS011;60655;52.182;4.474;2022-11-15T05:13:04;31.55;;;12.32;;
72611;SDS011;60655;52.182;4.474;2022-11-15T05:15:06;25.60;;;11.57;;
72611;SDS011;60655;52.182;4.474;2022-11-15T05:17:07;28.95;;;9.88;;
72611;SDS011;60655;52.182;4.474;2022-11-15T05:19:08;24.55;;;10.93;;
72611;SDS011;60655;52.182;4.474;2022-11-15T05:21:10;26.13;;;10.82;;
72611;SDS011;60655;52.182;4.474;2022-11-15T05:23:13;28.90;;;10.63;;
72611;SDS011;60655;52.182;4.474;2022-11-15T05:25:13;26.20;;;10.65;;
72611;SDS011;60655;52.182;4.474;2022-11-15T05:27:15;32.13;;;10.32;;
72611;SDS011;60655;52.182;4.474;2022-11-15T05:29:16;20.88;;;8.88;;
72611;SDS011;60655;52.182;4.474;2022-11-15T05:31:16;28.50;;;10.07;;
72611;SDS011;60655;52.182;4.474;2022-11-15T05:33:18;24.38;;;9.75;;
72611;SDS011;60655;52.182;4.474;2022-11-15T05:35:41;21.60;;;10.27;;
72611;SDS011;60655;52.182;4.474;2022-11-15T05:37:42;22.80;;;9.45;;
72611;SDS011;60655;52.182;4.474;2022-11-15T05:39:43;20.85;;;8.88;;
72611;SDS011;60655;52.182;4.474;2022-11-15T05:41:46;21.75;;;8.07;;
72611;SDS011;60655;52.182;4.474;2022-11-15T05:43:51;20.30;;;9.30;;
72611;SDS011;60655;52.182;4.474;2022-11-15T05:45:52;20.40;;;8.43;;
72611;SDS011;60655;52.182;4.474;2022-11-15T05:47:54;20.13;;;8.10;;
72611;SDS011;60655;52.182;4.474;2022-11-15T05:49:57;22.30;;;8.40;;
72611;SDS011;60655;52.182;4.474;2022-11-15T05:51:59;20.58;;;8.15;;
72611;SDS011;60655;52.182;4.474;2022-11-15T05:54:00;27.17;;;9.23;;
72611;SDS011;60655;52.182;4.474;2022-11-15T05:56:02;21.77;;;8.57;;
72611;SDS011;60655;52.182;4.474;2022-11-15T05:58:04;22.13;;;8.70;;
72611;SDS011;60655;52.182;4.474;2022-11-15T06:00:05;18.95;;;7.88;;
72611;SDS011;60655;52.182;4.474;2022-11-15T06:02:07;19.92;;;8.15;;
72611;SDS011;60655;52.182;4.474;2022-11-15T06:04:09;18.20;;;8.07;;
72611;SDS011;60655;52.182;4.474;2022-11-15T06:06:10;16.15;;;6.88;;
72611;SDS011;60655;52.182;4.474;2022-11-15T06:08:11;15.07;;;7.38;;
72611;SDS011;60655;52.182;4.474;2022-11-15T06:10:12;15.80;;;7.22;;
72611;SDS011;60655;52.182;4.474;2022-11-15T06:12:13;16.27;;;7.28;;
72611;SDS011;60655;52.182;4.474;2022-11-15T06:14:14;22.23;;;7.50;;
72611;SDS011;60655;52.182;4.474;2022-11-15T06:16:15;19.15;;;8.73;;
72611;SDS011;60655;52.182;4.474;2022-11-15T06:18:17;17.02;;;6.78;;
72611;SDS011;60655;52.182;4.474;2022-11-15T06:20:18;13.65;;;6.20;;
72611;SDS011;60655;52.182;4.474;2022-11-15T06:22:19;13.65;;;6.05;;
72611;SDS011;60655;52.182;4.474;2022-11-15T06:24:20;14.13;;;5.65;;
72611;SDS011;60655;52.182;4.474;2022-11-15T06:26:22;15.80;;;5.80;;
72611;SDS011;60655;52.182;4.474;2022-11-15T06:28:24;18.15;;;5.88;;
72611;SDS011;60655;52.182;4.474;2022-11-15T06:30:30;13.93;;;5.28;;
72611;SDS011;60655;52.182;4.474;2022-11-15T06:32:33;12.52;;;4.70;;
72611;SDS011;60655;52.182;4.474;2022-11-15T06:34:34;12.00;;;5.38;;
72611;SDS011;60655;52.182;4.474;2022-11-15T06:36:36;15.40;;;5.13;;
72611;SDS011;60655;52.182;4.474;2022-11-15T06:38:39;10.63;;;4.30;;
72611;SDS011;60655;52.182;4.474;2022-11-15T06:40:40;13.52;;;5.43;;
72611;SDS011;60655;52.182;4.474;2022-11-15T06:42:41;14.55;;;4.55;;
72611;SDS011;60655;52.182;4.474;2022-11-15T06:44:42;13.02;;;4.28;;
72611;SDS011;60655;52.182;4.474;2022-11-15T06:46:43;11.95;;;4.65;;
72611;SDS011;60655;52.182;4.474;2022-11-15T06:48:44;15.25;;;4.05;;
72611;SDS011;60655;52.182;4.474;2022-11-15T06:50:51;9.88;;;3.58;;
72611;SDS011;60655;52.182;4.474;2022-11-15T06:53:00;11.88;;;3.85;;
72611;SDS011;60655;52.182;4.474;2022-11-15T06:55:01;10.27;;;3.38;;
72611;SDS011;60655;52.182;4.474;2022-11-15T06:57:03;12.15;;;4.10;;
72611;SDS011;60655;52.182;4.474;2022-11-15T06:59:05;12.23;;;3.58;;
72611;SDS011;60655;52.182;4.474;2022-11-15T07:01:08;13.88;;;4.10;;
72611;SDS011;60655;52.182;4.474;2022-11-15T07:03:11;10.15;;;3.83;;
72611;SDS011;60655;52.182;4.474;2022-11-15T07:05:13;11.02;;;3.95;;
72611;SDS011;60655;52.182;4.474;2022-11-15T07:07:17;13.07;;;3.80;;
72611;SDS011;60655;52.182;4.474;2022-11-15T07:09:18;9.73;;;3.90;;
72611;SDS011;60655;52.182;4.474;2022-11-15T07:11:19;9.13;;;3.80;;
72611;SDS011;60655;52.182;4.474;2022-11-15T07:13:23;13.15;;;4.50;;
72611;SDS011;60655;52.182;4.474;2022-11-15T07:15:27;8.55;;;3.88;;
72611;SDS011;60655;52.182;4.474;2022-11-15T07:17:28;13.40;;;4.00;;
72611;SDS011;60655;52.182;4.474;2022-11-15T07:19:29;11.57;;;3.58;;
72611;SDS011;60655;52.182;4.474;2022-11-15T07:21:32;9.63;;;4.15;;
72611;SDS011;60655;52.182;4.474;2022-11-15T07:23:35;13.70;;;4.45;;
72611;SDS011;60655;52.182;4.474;2022-11-15T07:25:36;13.00;;;4.20;;
72611;SDS011;60655;52.182;4.474;2022-11-15T07:27:37;11.20;;;3.92;;
72611;SDS011;60655;52.182;4.474;2022-11-15T07:29:38;10.75;;;3.83;;
72611;SDS011;60655;52.182;4.474;2022-11-15T07:31:39;11.23;;;4.18;;
72611;SDS011;60655;52.182;4.474;2022-11-15T07:33:40;11.30;;;4.03;;
72611;SDS011;60655;52.182;4.474;2022-11-15T07:35:41;14.93;;;4.63;;
72611;SDS011;60655;52.182;4.474;2022-11-15T07:37:43;11.38;;;4.97;;
72611;SDS011;60655;52.182;4.474;2022-11-15T07:39:44;10.63;;;3.90;;
72611;SDS011;60655;52.182;4.474;2022-11-15T07:41:46;13.07;;;4.82;;
72611;SDS011;60655;52.182;4.474;2022-11-15T07:43:51;16.85;;;4.50;;
72611;SDS011;60655;52.182;4.474;2022-11-15T07:45:53;12.95;;;4.93;;
72611;SDS011;60655;52.182;4.474;2022-11-15T07:47:54;12.23;;;4.07;;
72611;SDS011;60655;52.182;4.474;2022-11-15T07:49:56;16.23;;;4.53;;
72611;SDS011;60655;52.182;4.474;2022-11-15T07:51:57;11.82;;;4.80;;
72611;SDS011;60655;52.182;4.474;2022-11-15T07:53:58;14.75;;;4.63;;
72611;SDS011;60655;52.182;4.474;2022-11-15T07:55:59;12.38;;;4.38;;
72611;SDS011;60655;52.182;4.474;2022-11-15T07:58:04;12.00;;;4.32;;
72611;SDS011;60655;52.182;4.474;2022-11-15T08:00:06;13.32;;;4.70;;
72611;SDS011;60655;52.182;4.474;2022-11-15T08:02:08;10.57;;;4.60;;
72611;SDS011;60655;52.182;4.474;2022-11-15T08:04:10;12.27;;;4.28;;
72611;SDS011;60655;52.182;4.474;2022-11-15T08:06:12;12.52;;;4.57;;
72611;SDS011;60655;52.182;4.474;2022-11-15T08:08:14;12.88;;;4.70;;
72611;SDS011;60655;52.182;4.474;2022-11-15T08:10:15;10.50;;;4.50;;
72611;SDS011;60655;52.182;4.474;2022-11-15T08:12:19;10.50;;;4.05;;
72611;SDS011;60655;52.182;4.474;2022-11-15T08:14:20;13.23;;;3.88;;
72611;SDS011;60655;52.182;4.474;2022-11-15T08:16:22;11.05;;;4.20;;
72611;SDS011;60655;52.182;4.474;2022-11-15T08:18:23;19.48;;;4.90;;
72611;SDS011;60655;52.182;4.474;2022-11-15T08:20:25;14.05;;;3.90;;
72611;SDS011;60655;52.182;4.474;2022-11-15T08:22:30;10.20;;;3.47;;
72611;SDS011;60655;52.182;4.474;2022-11-15T08:24:31;11.68;;;3.35;;
72611;SDS011;60655;52.182;4.474;2022-11-15T08:26:32;14.45;;;3.80;;
72611;SDS011;60655;52.182;4.474;2022-11-15T08:28:33;14.75;;;3.60;;
72611;SDS011;60655;52.182;4.474;2022-11-15T08:30:34;12.70;;;3.67;;
72611;SDS011;60655;52.182;4.474;2022-11-15T08:32:38;11.60;;;3.58;;
72611;SDS011;60655;52.182;4.474;2022-11-15T08:34:39;10.85;;;3.70;;
72611;SDS011;60655;52.182;4.474;2022-11-15T08:36:40;11.05;;;3.47;;
72611;SDS011;60655;52.182;4.474;2022-11-15T08:38:41;11.25;;;3.50;;
72611;SDS011;60655;52.182;4.474;2022-11-15T08:40:42;12.45;;;4.18;;
72611;SDS011;60655;52.182;4.474;2022-11-15T08:42:43;8.50;;;3.33;;
72611;SDS011;60655;52.182;4.474;2022-11-15T08:44:46;10.57;;;3.70;;
72611;SDS011;60655;52.182;4.474;2022-11-15T08:46:47;14.55;;;3.53;;
72611;SDS011;60655;52.182;4.474;2022-11-15T08:48:48;14.55;;;3.85;;
72611;SDS011;60655;52.182;4.474;2022-11-15T08:50:53;10.52;;;3.63;;
72611;SDS011;60655;52.182;4.474;2022-11-15T08:52:57;7.65;;;3.13;;
72611;SDS011;60655;52.182;4.474;2022-11-15T08:55:04;12.43;;;4.10;;
72611;SDS011;60655;52.182;4.474;2022-11-15T08:57:05;9.52;;;3.70;;
72611;SDS011;60655;52.182;4.474;2022-11-15T08:59:07;9.38;;;3.80;;
72611;SDS011;60655;52.182;4.474;2022-11-15T09:01:14;11.55;;;4.38;;
72611;SDS011;60655;52.182;4.474;2022-11-15T09:03:17;14.02;;;4.65;;
72611;SDS011;60655;52.182;4.474;2022-11-15T09:05:18;12.68;;;4.60;;
72611;SDS011;60655;52.182;4.474;2022-11-15T09:07:19;10.38;;;4.28;;
72611;SDS011;60655;52.182;4.474;2022-11-15T09:09:20;10.85;;;4.28;;
72611;SDS011;60655;52.182;4.474;2022-11-15T09:11:21;12.45;;;4.78;;
72611;SDS011;60655;52.182;4.474;2022-11-15T09:13:23;13.23;;;4.65;;
72611;SDS011;60655;52.182;4.474;2022-11-15T09:15:24;10.95;;;4.10;;
72611;SDS011;60655;52.182;4.474;2022-11-15T09:17:25;14.13;;;4.78;;
72611;SDS011;60655;52.182;4.474;2022-11-15T09:19:26;10.30;;;4.70;;
72611;SDS011;60655;52.182;4.474;2022-11-15T09:21:28;14.57;;;4.97;;
72611;SDS011;60655;52.182;4.474;2022-11-15T09:23:30;15.07;;;5.07;;
72611;SDS011;60655;52.182;4.474;2022-11-15T09:25:31;13.68;;;4.63;;
72611;SDS011;60655;52.182;4.474;2022-11-15T09:27:32;14.65;;;4.63;;
72611;SDS011;60655;52.182;4.474;2022-11-15T09:29:33;13.80;;;4.97;;
72611;SDS011;60655;52.182;4.474;2022-11-15T09:31:34;10.57;;;3.90;;
72611;SDS011;60655;52.182;4.474;2022-11-15T09:33:36;14.90;;;4.72;;
72611;SDS011;60655;52.182;4.474;2022-11-15T09:35:37;12.45;;;4.28;;
72611;SDS011;60655;52.182;4.474;2022-11-15T09:37:38;10.15;;;4.47;;
72611;SDS011;60655;52.182;4.474;2022-11-15T09:39:39;12.82;;;5.00;;
72611;SDS011;60655;52.182;4.474;2022-11-15T09:46:28;12.63;;;3.88;;
72611;SDS011;60655;52.182;4.474;2022-11-15T09:48:59;13.90;;;3.58;;
72611;SDS011;60655;52.182;4.474;2022-11-15T09:51:06;8.95;;;3.90;;
72611;SDS011;60655;52.182;4.474;2022-11-15T09:55:49;10.27;;;3.65;;
72611;SDS011;60655;52.182;4.474;2022-11-15T09:58:00;9.88;;;3.83;;
72611;SDS011;60655;52.182;4.474;2022-11-15T10:00:33;10.07;;;3.72;;
72611;SDS011;60655;52.182;4.474;2022-11-15T10:03:01;10.05;;;3.45;;
72611;SDS011;60655;52.182;4.474;2022-11-15T10:05:10;8.50;;;3.53;;
72611;SDS011;60655;52.182;4.474;2022-11-15T10:07:27;10.40;;;3.55;;
72611;SDS011;60655;52.182;4.474;2022-11-15T10:09:41;10.40;;;3.50;;
72611;SDS011;60655;52.182;4.474;2022-11-15T10:11:48;13.05;;;3.67;;
72611;SDS011;60655;52.182;4.474;2022-11-15T10:13:50;9.32;;;3.42;;
72611;SDS011;60655;52.182;4.474;2022-11-15T10:15:53;10.68;;;3.35;;
72611;SDS011;60655;52.182;4.474;2022-11-15T10:18:06;11.45;;;3.50;;
72611;SDS011;60655;52.182;4.474;2022-11-15T10:20:30;8.32;;;3.28;;
72611;SDS011;60655;52.182;4.474;2022-11-15T10:22:46;7.90;;;2.92;;
72611;SDS011;60655;52.182;4.474;2022-11-15T10:24:52;11.27;;;3.00;;
72611;SDS011;60655;52.182;4.474;2022-11-15T10:27:12;9.18;;;2.85;;
72611;SDS011;60655;52.182;4.474;2022-11-15T10:29:19;9.93;;;2.67;;
72611;SDS011;60655;52.182;4.474;2022-11-15T10:31:23;10.82;;;3.00;;
72611;SDS011;60655;52.182;4.474;2022-11-15T10:33:32;12.07;;;3.03;;
72611;SDS011;60655;52.182;4.474;2022-11-15T10:35:35;10.52;;;2.83;;
72611;SDS011;60655;52.182;4.474;2022-11-15T10:37:36;9.65;;;2.80;;
72611;SDS011;60655;52.182;4.474;2022-11-15T10:39:37;8.60;;;2.97;;
72611;SDS011;60655;52.182;4.474;2022-11-15T10:41:39;8.75;;;2.40;;
72611;SDS011;60655;52.182;4.474;2022-11-15T10:43:42;10.00;;;2.53;;
72611;SDS011;60655;52.182;4.474;2022-11-15T10:45:43;11.93;;;2.60;;
72611;SDS011;60655;52.182;4.474;2022-11-15T10:47:45;8.48;;;2.55;;
72611;SDS011;60655;52.182;4.474;2022-11-15T10:52:25;8.32;;;2.03;;
72611;SDS011;60655;52.182;4.474;2022-11-15T10:54:28;7.82;;;1.85;;
72611;SDS011;60655;52.182;4.474;2022-11-15T10:56:33;8.48;;;2.40;;
72611;SDS011;60655;52.182;4.474;2022-11-15T10:58:36;7.40;;;2.22;;
72611;SDS011;60655;52.182;4.474;2022-11-15T11:00:39;12.02;;;2.72;;
72611;SDS011;60655;52.182;4.474;2022-11-15T11:02:45;7.70;;;2.05;;
72611;SDS011;60655;52.182;4.474;2022-11-15T11:04:50;8.77;;;2.38;;
72611;SDS011;60655;52.182;4.474;2022-11-15T11:09:34;9.85;;;2.40;;
72611;SDS011;60655;52.182;4.474;2022-11-15T11:11:44;9.23;;;2.20;;
72611;SDS011;60655;52.182;4.474;2022-11-15T11:13:47;6.90;;;2.38;;
72611;SDS011;60655;52.182;4.474;2022-11-15T11:15:53;7.78;;;2.10;;
72611;SDS011;60655;52.182;4.474;2022-11-15T11:22:41;6.53;;;2.20;;
72611;SDS011;60655;52.182;4.474;2022-11-15T11:27:42;11.18;;;2.25;;
72611;SDS011;60655;52.182;4.474;2022-11-15T11:32:05;9.32;;;2.20;;
72611;SDS011;60655;52.182;4.474;2022-11-15T11:34:33;6.63;;;1.90;;
72611;SDS011;60655;52.182;4.474;2022-11-15T11:36:47;7.38;;;2.13;;
72611;SDS011;60655;52.182;4.474;2022-11-15T11:38:58;5.45;;;1.73;;
72611;SDS011;60655;52.182;4.474;2022-11-15T11:43:47;13.88;;;2.13;;
72611;SDS011;60655;52.182;4.474;2022-11-15T11:48:42;11.40;;;2.00;;
72611;SDS011;60655;52.182;4.474;2022-11-15T11:51:10;8.15;;;1.73;;
72611;SDS011;60655;52.182;4.474;2022-11-15T11:53:39;4.57;;;1.42;;
72611;SDS011;60655;52.182;4.474;2022-11-15T11:55:51;5.60;;;1.80;;
72611;SDS011;60655;52.182;4.474;2022-11-15T11:58:17;6.05;;;2.00;;
72611;SDS011;60655;52.182;4.474;2022-11-15T12:00:38;5.65;;;1.65;;
72611;SDS011;60655;52.182;4.474;2022-11-15T12:02:43;6.82;;;1.70;;
72611;SDS011;60655;52.182;4.474;2022-11-15T12:04:51;8.80;;;1.60;;
72611;SDS011;60655;52.182;4.474;2022-11-15T12:09:26;6.13;;;1.50;;
72611;SDS011;60655;52.182;4.474;2022-11-15T12:11:49;10.23;;;1.70;;
72611;SDS011;60655;52.182;4.474;2022-11-15T12:14:19;5.43;;;1.55;;
72611;SDS011;60655;52.182;4.474;2022-11-15T12:16:28;4.90;;;1.33;;
72611;SDS011;60655;52.182;4.474;2022-11-15T12:18:31;8.00;;;1.38;;
72611;SDS011;60655;52.182;4.474;2022-11-15T12:20:34;6.18;;;1.48;;
72611;SDS011;60655;52.182;4.474;2022-11-15T12:22:42;8.27;;;1.30;;
72611;SDS011;60655;52.182;4.474;2022-11-15T12:29:18;9.68;;;1.65;;
72611;SDS011;60655;52.182;4.474;2022-11-15T12:33:38;6.00;;;1.30;;
72611;SDS011;60655;52.182;4.474;2022-11-15T12:35:42;5.43;;;1.23;;
72611;SDS011;60655;52.182;4.474;2022-11-15T12:37:50;8.45;;;1.33;;
72611;SDS011;60655;52.182;4.474;2022-11-15T12:42:39;7.80;;;1.33;;
72611;SDS011;60655;52.182;4.474;2022-11-15T12:44:57;4.15;;;1.30;;
72611;SDS011;60655;52.182;4.474;2022-11-15T12:47:21;5.80;;;1.13;;
72611;SDS011;60655;52.182;4.474;2022-11-15T12:53:44;8.88;;;1.20;;
72611;SDS011;60655;52.182;4.474;2022-11-15T12:55:45;5.93;;;1.13;;
72611;SDS011;60655;52.182;4.474;2022-11-15T12:58:28;7.22;;;1.10;;
72611;SDS011;60655;52.182;4.474;2022-11-15T13:00:41;4.10;;;1.10;;
72611;SDS011;60655;52.182;4.474;2022-11-15T13:02:43;4.50;;;1.00;;
72611;SDS011;60655;52.182;4.474;2022-11-15T13:04:45;6.55;;;1.20;;
72611;SDS011;60655;52.182;4.474;2022-11-15T13:06:47;4.22;;;1.02;;
72611;SDS011;60655;52.182;4.474;2022-11-15T13:08:50;5.20;;;0.80;;
72611;SDS011;60655;52.182;4.474;2022-11-15T13:10:51;7.22;;;1.08;;
72611;SDS011;60655;52.182;4.474;2022-11-15T13:20:02;4.93;;;1.02;;
72611;SDS011;60655;52.182;4.474;2022-11-15T13:22:09;8.43;;;1.40;;
72611;SDS011;60655;52.182;4.474;2022-11-15T13:24:29;4.63;;;0.90;;
72611;SDS011;60655;52.182;4.474;2022-11-15T13:26:30;6.28;;;1.05;;
72611;SDS011;60655;52.182;4.474;2022-11-15T13:28:32;6.43;;;1.30;;
72611;SDS011;60655;52.182;4.474;2022-11-15T13:31:00;4.90;;;0.90;;
72611;SDS011;60655;52.182;4.474;2022-11-15T13:33:21;3.22;;;0.90;;
72611;SDS011;60655;52.182;4.474;2022-11-15T13:35:26;8.07;;;1.48;;
72611;SDS011;60655;52.182;4.474;2022-11-15T13:37:29;9.98;;;1.13;;
72611;SDS011;60655;52.182;4.474;2022-11-15T13:39:32;5.10;;;0.90;;
72611;SDS011;60655;52.182;4.474;2022-11-15T13:41:35;5.80;;;1.10;;
72611;SDS011;60655;52.182;4.474;2022-11-15T13:43:44;4.85;;;1.23;;
72611;SDS011;60655;52.182;4.474;2022-11-15T13:45:45;5.65;;;1.00;;
72611;SDS011;60655;52.182;4.474;2022-11-15T13:48:03;9.32;;;1.30;;
72611;SDS011;60655;52.182;4.474;2022-11-15T13:50:09;5.55;;;0.98;;
72611;SDS011;60655;52.182;4.474;2022-11-15T13:52:13;9.20;;;0.90;;
72611;SDS011;60655;52.182;4.474;2022-11-15T13:54:21;9.65;;;1.45;;
72611;SDS011;60655;52.182;4.474;2022-11-15T13:56:26;5.82;;;1.17;;
72611;SDS011;60655;52.182;4.474;2022-11-15T13:58:30;4.13;;;0.93;;
72611;SDS011;60655;52.182;4.474;2022-11-15T14:02:41;8.98;;;1.20;;
72611;SDS011;60655;52.182;4.474;2022-11-15T14:04:53;8.32;;;1.17;;
72611;SDS011;60655;52.182;4.474;2022-11-15T14:07:00;5.68;;;1.15;;
72611;SDS011;60655;52.182;4.474;2022-11-15T14:11:09;4.10;;;0.82;;
72611;SDS011;60655;52.182;4.474;2022-11-15T14:13:27;4.68;;;1.00;;
72611;SDS011;60655;52.182;4.474;2022-11-15T14:15:33;5.90;;;1.10;;
72611;SDS011;60655;52.182;4.474;2022-11-15T14:17:37;2.15;;;0.75;;